Share

Hawaii Volcanoes National Park, HI

3:49 AM HST on April 24, 2014 (GMT -1000)
Volcano Village (KHIVOLCA2) Elev 3796 ft | 19.43 °N, 155.24 °W | Change Station

Current weather conditions updated 3 minutes ago

Rain
Rain
56.7 °F
Feels Like 56.7 °F
N
5.0
Wind Variable Wind from ENE
Gusts 6.0 mph
Sunrise 5:56 AM
Sunset 6:41 PM
Moon Waning Crescent

Today is forecast to be nearly the same temperature as yesterday.

Pressure 29.99 in
Visibility 11.0 miles
Clouds Clear
Dew Point 56 °F
Humidity 99%
Rainfall 0.00 in
Snow Depth Not available.
UV out of 16
Pollen Not available.
Air Quality Not available.
Flu Activity Local Activity
METAR PHSF 241256Z AUTO 12008G16KT 11SM CLR 09/06 A3031 RMK AO2 SLP155 T00910062

More Conditions Fewer Conditions

Pressure 29.99 in
Visibility 11.0 miles
Clouds Clear
Dew Point 56 °F
Humidity 99%
Rainfall 0.00 in
Snow Depth Not available.
UV out of 16
Pollen Not available.
Air Quality Not available.
Flu Activity Local Activity
METAR PHSF 241256Z AUTO 12008G16KT 11SM CLR 09/06 A3031 RMK AO2 SLP155 T00910062

More Conditions Fewer Conditions

10-Day Weather Forecast

Almanac

Astronomy

Apr. 24, 2014 Rise Set
Actual Time 5:56 AM HST 6:41 PM HST
Civil Twilight 5:34 AM HST 7:04 PM HST
Nautical Twilight 5:07 AM HST 7:31 PM HST
Astronomical Twilight 4:40 AM HST 7:58 PM HST
Moon 2:35 AM HST 2:45 PM HST
Length of Visible Light 13h 30m
Length of Day
12h 44m
Tomorrow will be 1m 0s longer.
Waning Crescent, 25% of the Moon is Illuminated
Today
Waning Crescent
Apr 29
New
May 6
First Quarter
May 14
Full
May 21
Last Quarter

Today's Extremes

State Highs State Lows

Community

  • Stacked
    Stacked
  • clouds approaching Red Sox Nation
    clouds approaching Red Sox Nation
  • Balance
    Balance
  • Citysky
    Citysky
  • Nestled In
    Nestled In

WunderPhotos

Upload Photos

1,704,607 photos uploaded!

Nearby

Snow Depth

Station Depth Elevation
No new snow has been reported.

Coastal Water Temperatures

Place Temperature
No Stations Reporting

Earthquake Activity

City Distance Mag. Time & Date
No recent earthquake activity has been reported nearby.
Minimum magnitude displayed is 2.5.

Nearby Weather Stations

Station Location Temp. Dew Point Humidity Wind Precip. Elev Updated Type
Volcano Village, Volcano, HI 56.7 °F 56 °F 99% ENE  at  5.0 mph 0.00 in / hr 3796 ft 3:45 AM HST Normal
Kalani, Pahoa, HI 73.0 °F 72 °F 98% West  at  2.7 mph - / hr 141 ft 3:34 AM HST Normal

Show More Stations Show Fewer Stations

What do you think?

We're not finished. Please let us know what you like, what you don't like, and what you are still missing.